Time,TemperatureF,DewpointF,PressureIn,WindDirection,WindDirectionDegrees,WindSpeedMPH,WindSpeedGustMPH,Humidity,HourlyPrecipIn,Conditions,Clouds,dailyrainin,SoftwareType,DateUTC
2013-01-28 00:04:00,28.4,18.5,26.49,North,0,0.0,0.0,66,0.00,,,0.00,VWS V14.01,2013-01-28 08:04:00,
2013-01-28 00:09:00,27.9,18.3,26.52,North,0,0.0,0.0,67,0.00,,,0.00,VWS V14.01,2013-01-28 08:09:00,
2013-01-28 00:14:00,27.9,18.3,26.52,North,0,0.0,0.0,67,0.00,,,0.00,VWS V14.01,2013-01-28 08:14:00,
2013-01-28 00:19:00,28.0,18.9,26.52,North,0,0.0,0.0,68,0.00,,,0.00,VWS V14.01,2013-01-28 08:19:00,
2013-01-28 00:24:00,28.0,18.9,26.52,North,0,0.0,0.0,68,0.00,,,0.00,VWS V14.01,2013-01-28 08:24:00,
2013-01-28 00:29:00,27.9,19.0,26.52,North,0,0.0,0.0,69,0.00,,,0.00,VWS V14.01,2013-01-28 08:29:00,
2013-01-28 00:34:00,27.7,18.9,26.52,North,0,0.0,0.0,69,0.00,,,0.00,VWS V14.01,2013-01-28 08:34:00,
2013-01-28 00:39:00,27.7,18.9,26.49,North,0,0.0,0.0,69,0.00,,,0.00,VWS V14.01,2013-01-28 08:39:00,
2013-01-28 00:44:00,26.6,17.8,26.49,North,0,0.0,0.0,69,0.00,,,0.00,VWS V14.01,2013-01-28 08:44:00,
2013-01-28 00:49:00,26.2,17.8,26.49,North,0,0.0,0.0,70,0.00,,,0.00,VWS V14.01,2013-01-28 08:49:00,
2013-01-28 00:54:00,26.2,17.8,26.49,North,0,0.0,0.0,70,0.00,,,0.00,VWS V14.01,2013-01-28 08:54:00,
2013-01-28 00:59:00,26.1,17.3,26.49,North,0,0.0,0.0,69,0.00,,,0.00,VWS V14.01,2013-01-28 08:59:00,
2013-01-28 01:04:00,25.9,17.5,26.49,North,0,0.0,0.0,70,0.00,,,0.00,VWS V14.01,2013-01-28 09:04:00,
2013-01-28 01:09:00,26.2,17.5,26.49,North,0,0.0,0.0,69,0.00,,,0.00,VWS V14.01,2013-01-28 09:09:00,
2013-01-28 01:14:00,26.1,17.3,26.49,North,0,0.0,0.0,69,0.00,,,0.00,VWS V14.01,2013-01-28 09:14:00,
2013-01-28 01:19:00,25.3,16.3,26.49,North,0,0.0,0.0,68,0.00,,,0.00,VWS V14.01,2013-01-28 09:19:00,
2013-01-28 01:24:00,25.2,16.1,26.49,North,0,0.0,0.0,68,0.00,,,0.00,VWS V14.01,2013-01-28 09:24:00,
2013-01-28 01:29:00,24.8,16.1,26.49,North,0,0.0,0.0,69,0.00,,,0.00,VWS V14.01,2013-01-28 09:29:00,
2013-01-28 01:34:00,24.8,16.1,26.49,North,0,0.0,0.0,69,0.00,,,0.00,VWS V14.01,2013-01-28 09:34:00,
2013-01-28 01:39:00,23.7,15.7,26.49,North,0,0.0,0.0,71,0.00,,,0.00,VWS V14.01,2013-01-28 09:39:00,
2013-01-28 01:44:00,23.5,15.9,26.49,North,0,0.0,0.0,72,0.00,,,0.00,VWS V14.01,2013-01-28 09:44:00,
2013-01-28 01:49:00,23.4,16.3,26.49,North,0,0.0,0.0,74,0.00,,,0.00,VWS V14.01,2013-01-28 09:49:00,
2013-01-28 01:54:00,23.4,16.3,26.49,North,0,0.0,0.0,74,0.00,,,0.00,VWS V14.01,2013-01-28 09:54:00,
2013-01-28 01:59:00,23.4,16.6,26.52,North,0,0.0,0.0,75,0.00,,,0.00,VWS V14.01,2013-01-28 09:59:00,
2013-01-28 02:04:00,23.4,16.3,26.49,North,0,0.0,0.0,74,0.00,,,0.00,VWS V14.01,2013-01-28 10:04:00,
2013-01-28 02:09:00,23.2,16.1,26.49,North,0,0.0,0.0,74,0.00,,,0.00,VWS V14.01,2013-01-28 10:09:00,
2013-01-28 02:14:00,23.2,16.5,26.49,North,0,0.0,0.0,75,0.00,,,0.00,VWS V14.01,2013-01-28 10:14:00,
2013-01-28 02:19:00,23.4,16.9,26.49,North,0,0.0,0.0,76,0.00,,,0.00,VWS V14.01,2013-01-28 10:19:00,
2013-01-28 02:24:00,22.8,16.1,26.49,North,0,0.0,0.0,75,0.00,,,0.00,VWS V14.01,2013-01-28 10:24:00,
2013-01-28 02:29:00,23.5,17.4,26.49,North,0,0.0,0.0,77,0.00,,,0.00,VWS V14.01,2013-01-28 10:29:00,
2013-01-28 02:34:00,23.5,17.1,26.49,North,0,0.0,0.0,76,0.00,,,0.00,VWS V14.01,2013-01-28 10:34:00,
2013-01-28 02:39:00,23.5,17.1,26.49,North,0,0.0,0.0,76,0.00,,,0.00,VWS V14.01,2013-01-28 10:39:00,
2013-01-28 02:44:00,23.5,17.1,26.49,North,0,0.0,0.0,76,0.00,,,0.00,VWS V14.01,2013-01-28 10:44:00,
2013-01-28 02:49:00,23.5,17.1,26.49,North,0,0.0,0.0,76,0.00,,,0.00,VWS V14.01,2013-01-28 10:49:00,
2013-01-28 02:54:00,23.9,17.5,26.49,North,0,0.0,0.0,76,0.00,,,0.00,VWS V14.01,2013-01-28 10:54:00,
2013-01-28 02:59:00,23.9,17.5,26.49,North,0,0.0,0.0,76,0.00,,,0.00,VWS V14.01,2013-01-28 10:59:00,
2013-01-28 03:04:00,23.5,16.8,26.49,North,0,0.0,0.0,75,0.00,,,0.00,VWS V14.01,2013-01-28 11:04:00,
2013-01-28 03:09:00,23.2,16.5,26.49,North,0,0.0,0.0,75,0.00,,,0.00,VWS V14.01,2013-01-28 11:09:00,
2013-01-28 03:14:00,23.2,16.5,26.49,North,0,0.0,0.0,75,0.00,,,0.00,VWS V14.01,2013-01-28 11:14:00,
2013-01-28 03:19:00,22.6,15.6,26.49,North,0,0.0,0.0,74,0.00,,,0.00,VWS V14.01,2013-01-28 11:19:00,
2013-01-28 03:24:00,22.8,16.7,26.49,North,0,0.0,0.0,77,0.00,,,0.00,VWS V14.01,2013-01-28 11:24:00,
2013-01-28 03:29:00,22.8,16.7,26.49,North,0,0.0,0.0,77,0.00,,,0.00,VWS V14.01,2013-01-28 11:29:00,
2013-01-28 03:34:00,22.3,15.6,26.49,North,0,0.0,0.0,75,0.00,,,0.00,VWS V14.01,2013-01-28 11:34:00,
2013-01-28 03:39:00,21.2,14.5,26.49,North,0,0.0,0.0,75,0.00,,,0.00,VWS V14.01,2013-01-28 11:39:00,
2013-01-28 03:44:00,21.2,14.5,26.49,North,0,0.0,0.0,75,0.00,,,0.00,VWS V14.01,2013-01-28 11:44:00,
2013-01-28 03:49:00,21.2,14.8,26.49,North,0,0.0,0.0,76,0.00,,,0.00,VWS V14.01,2013-01-28 11:49:00,
2013-01-28 03:54:00,21.7,15.6,26.49,North,0,0.0,0.0,77,0.00,,,0.00,VWS V14.01,2013-01-28 11:54:00,
2013-01-28 03:59:00,21.7,15.6,26.49,North,0,0.0,0.0,77,0.00,,,0.00,VWS V14.01,2013-01-28 11:59:00,
2013-01-28 04:04:00,21.9,16.4,26.49,North,0,0.0,0.0,79,0.00,,,0.00,VWS V14.01,2013-01-28 12:04:00,
2013-01-28 04:09:00,21.9,16.4,26.49,North,0,0.0,0.0,79,0.00,,,0.00,VWS V14.01,2013-01-28 12:09:00,
2013-01-28 04:14:00,21.6,15.8,26.49,North,0,0.0,0.0,78,0.00,,,0.00,VWS V14.01,2013-01-28 12:14:00,
2013-01-28 04:19:00,21.6,15.8,26.49,North,0,0.0,0.0,78,0.00,,,0.00,VWS V14.01,2013-01-28 12:19:00,
2013-01-28 04:24:00,21.6,15.8,26.49,North,0,0.0,0.0,78,0.00,,,0.00,VWS V14.01,2013-01-28 12:24:00,
2013-01-28 04:29:00,21.4,15.3,26.49,North,0,0.0,0.0,77,0.00,,,0.00,VWS V14.01,2013-01-28 12:29:00,
2013-01-28 04:34:00,21.2,15.4,26.49,North,0,0.0,0.0,78,0.00,,,0.00,VWS V14.01,2013-01-28 12:34:00,
2013-01-28 04:39:00,21.2,15.4,26.49,North,0,0.0,0.0,78,0.00,,,0.00,VWS V14.01,2013-01-28 12:39:00,
2013-01-28 04:43:00,21.7,15.9,26.49,North,0,0.0,0.0,78,0.00,,,0.00,VWS V14.01,2013-01-28 12:43:00,
2013-01-28 04:48:00,21.9,16.4,26.49,North,0,0.0,0.0,79,0.00,,,0.00,VWS V14.01,2013-01-28 12:48:00,
2013-01-28 04:53:00,21.9,16.7,26.49,North,0,0.0,0.0,80,0.00,,,0.00,VWS V14.01,2013-01-28 12:53:00,
2013-01-28 04:58:00,22.3,17.1,26.49,North,0,0.0,0.0,80,0.00,,,0.00,VWS V14.01,2013-01-28 12:58:00,
2013-01-28 05:03:00,22.3,17.1,26.49,North,0,0.0,0.0,80,0.00,,,0.00,VWS V14.01,2013-01-28 13:03:00,
2013-01-28 05:08:00,22.8,17.9,26.49,North,0,0.0,0.0,81,0.00,,,0.00,VWS V14.01,2013-01-28 13:08:00,
2013-01-28 05:13:00,23.0,17.8,26.49,North,0,0.0,0.0,80,0.00,,,0.00,VWS V14.01,2013-01-28 13:13:00,
2013-01-28 05:18:00,23.0,17.8,26.49,North,0,0.0,0.0,80,0.00,,,0.00,VWS V14.01,2013-01-28 13:18:00,
2013-01-28 05:23:00,23.0,17.8,26.49,North,0,0.0,0.0,80,0.00,,,0.00,VWS V14.01,2013-01-28 13:23:00,
2013-01-28 05:28:00,22.5,16.6,26.49,North,0,0.0,0.0,78,0.00,,,0.00,VWS V14.01,2013-01-28 13:28:00,
2013-01-28 05:33:00,22.5,16.6,26.49,North,0,0.0,0.0,78,0.00,,,0.00,VWS V14.01,2013-01-28 13:33:00,
2013-01-28 05:38:00,22.1,16.3,26.49,North,0,0.0,0.0,78,0.00,,,0.00,VWS V14.01,2013-01-28 13:38:00,
2013-01-28 05:43:00,22.1,16.3,26.49,North,0,0.0,0.0,78,0.00,,,0.00,VWS V14.01,2013-01-28 13:43:00,
2013-01-28 05:48:00,21.7,15.9,26.49,North,0,0.0,0.0,78,0.00,,,0.00,VWS V14.01,2013-01-28 13:48:00,
2013-01-28 05:53:00,21.7,15.9,26.49,North,0,0.0,0.0,78,0.00,,,0.00,VWS V14.01,2013-01-28 13:53:00,
2013-01-28 05:58:00,21.9,16.1,26.49,North,0,0.0,0.0,78,0.00,,,0.00,VWS V14.01,2013-01-28 13:58:00,
2013-01-28 06:03:00,21.9,16.1,26.49,North,0,0.0,0.0,78,0.00,,,0.00,VWS V14.01,2013-01-28 14:03:00,
2013-01-28 06:08:00,21.9,16.4,26.49,North,0,0.0,0.0,79,0.00,,,0.00,VWS V14.01,2013-01-28 14:08:00,
2013-01-28 06:13:00,21.4,15.6,26.49,North,0,0.0,0.0,78,0.00,,,0.00,VWS V14.01,2013-01-28 14:13:00,
2013-01-28 06:18:00,21.4,15.6,26.49,North,0,0.0,0.0,78,0.00,,,0.00,VWS V14.01,2013-01-28 14:18:00,
2013-01-28 06:23:00,21.2,15.7,26.49,North,0,0.0,0.0,79,0.00,,,0.00,VWS V14.01,2013-01-28 14:23:00,
2013-01-28 06:28:00,21.2,15.7,26.49,North,0,0.0,0.0,79,0.00,,,0.00,VWS V14.01,2013-01-28 14:28:00,
2013-01-28 06:33:00,21.2,15.7,26.49,North,0,0.0,0.0,79,0.00,,,0.00,VWS V14.01,2013-01-28 14:33:00,
2013-01-28 06:38:00,22.3,17.6,26.49,North,0,0.0,0.0,82,0.00,,,0.00,VWS V14.01,2013-01-28 14:38:00,
2013-01-28 06:43:00,22.8,18.2,26.49,North,0,0.0,0.0,82,0.00,,,0.00,VWS V14.01,2013-01-28 14:43:00,
2013-01-28 06:48:00,23.4,18.1,26.49,North,0,0.0,0.0,80,0.00,,,0.00,VWS V14.01,2013-01-28 14:48:00,
2013-01-28 06:53:00,23.7,17.9,26.49,North,0,0.0,0.0,78,0.00,,,0.00,VWS V14.01,2013-01-28 14:53:00,
2013-01-28 06:58:00,23.5,17.4,26.49,North,0,0.0,0.0,77,0.00,,,0.00,VWS V14.01,2013-01-28 14:58:00,
2013-01-28 07:03:00,23.5,17.4,26.49,North,0,0.0,0.0,77,0.00,,,0.00,VWS V14.01,2013-01-28 15:03:00,
2013-01-28 07:08:00,22.8,16.7,26.49,North,0,0.0,0.0,77,0.00,,,0.00,VWS V14.01,2013-01-28 15:08:00,
2013-01-28 07:13:00,22.8,17.0,26.49,North,0,0.0,0.0,78,0.00,,,0.00,VWS V14.01,2013-01-28 15:13:00,
2013-01-28 07:18:00,22.8,17.0,26.49,North,0,0.0,0.0,78,0.00,,,0.00,VWS V14.01,2013-01-28 15:18:00,
2013-01-28 07:23:00,22.8,17.0,26.49,North,0,0.0,0.0,78,0.00,,,0.00,VWS V14.01,2013-01-28 15:23:00,
2013-01-28 07:28:00,22.8,17.0,26.49,North,0,0.0,0.0,78,0.00,,,0.00,VWS V14.01,2013-01-28 15:28:00,
2013-01-28 07:33:00,22.6,17.1,26.49,North,0,0.0,0.0,79,0.00,,,0.00,VWS V14.01,2013-01-28 15:33:00,
2013-01-28 07:38:00,22.8,17.3,26.49,North,0,0.0,0.0,79,0.00,,,0.00,VWS V14.01,2013-01-28 15:38:00,
2013-01-28 07:43:00,22.6,16.8,26.49,North,0,0.0,0.0,78,0.00,,,0.00,VWS V14.01,2013-01-28 15:43:00,
2013-01-28 07:48:00,22.5,16.6,26.49,North,0,0.0,0.0,78,0.00,,,0.00,VWS V14.01,2013-01-28 15:48:00,
2013-01-28 07:53:00,22.5,16.6,26.49,North,0,0.0,0.0,78,0.00,,,0.00,VWS V14.01,2013-01-28 15:53:00,
2013-01-28 07:58:00,22.6,17.1,26.49,North,0,0.0,0.0,79,0.00,,,0.00,VWS V14.01,2013-01-28 15:58:00,
2013-01-28 08:03:00,22.8,17.3,26.49,North,0,0.0,0.0,79,0.00,,,0.00,VWS V14.01,2013-01-28 16:03:00,